createdAt,value
2022-09-28T00:01:10.246Z,8.20
2022-09-28T00:03:37.188Z,8.20
2022-09-28T00:06:07.349Z,8.20
2022-09-28T00:08:35.080Z,8.20
2022-09-28T00:11:02.661Z,8.20
2022-09-28T00:13:29.806Z,8.20
2022-09-28T00:16:04.447Z,8.20
2022-09-28T00:18:32.166Z,8.20
2022-09-28T00:21:08.606Z,8.20
2022-09-28T00:23:56.213Z,8.20
2022-09-28T00:26:23.590Z,8.20
2022-09-28T00:28:59.117Z,8.20
2022-09-28T00:31:29.091Z,8.10
2022-09-28T00:34:00.207Z,8.20
2022-09-28T00:36:28.856Z,8.20
2022-09-28T00:38:56.878Z,8.20
2022-09-28T00:41:25.306Z,8.20
2022-09-28T00:43:52.733Z,8.20
2022-09-28T00:46:33.284Z,8.20
2022-09-28T00:49:09.201Z,8.20
2022-09-28T00:51:37.013Z,8.20
2022-09-28T00:54:05.628Z,8.20
2022-09-28T00:56:33.916Z,8.20
2022-09-28T00:59:01.803Z,8.20
2022-09-28T01:01:28.467Z,8.20
2022-09-28T01:03:55.134Z,8.20
2022-09-28T01:06:23.380Z,8.20
2022-09-28T01:08:53.514Z,8.20
2022-09-28T01:11:20.651Z,8.30
2022-09-28T01:13:50.070Z,8.30
2022-09-28T01:16:28.716Z,8.20
2022-09-28T01:18:55.325Z,8.10
2022-09-28T01:21:24.256Z,8.10
2022-09-28T01:24:13.553Z,8.10
2022-09-28T01:26:54.330Z,8.10
2022-09-28T01:29:29.539Z,8.10
2022-09-28T01:32:25.151Z,8.10
2022-09-28T01:35:14.900Z,8.10
2022-09-28T01:37:52.908Z,8.10
2022-09-28T01:40:23.321Z,8.10
2022-09-28T01:43:02.070Z,8.10
2022-09-28T01:45:47.635Z,8.10
2022-09-28T01:48:23.014Z,8.10
2022-09-28T01:50:54.642Z,8.10
2022-09-28T01:53:36.454Z,8.20
2022-09-28T01:56:15.036Z,8.20
2022-09-28T01:58:51.435Z,8.20
2022-09-28T02:01:39.189Z,8.20
2022-09-28T02:04:10.454Z,8.20
2022-09-28T02:06:44.426Z,8.20
2022-09-28T02:09:15.807Z,8.20
2022-09-28T02:11:50.321Z,8.30
2022-09-28T02:14:19.592Z,8.30
2022-09-28T02:16:49.906Z,8.30
2022-09-28T02:19:19.560Z,8.30
2022-09-28T02:22:12.993Z,8.20
2022-09-28T02:24:54.443Z,8.30
2022-09-28T02:27:36.346Z,8.30
2022-09-28T02:30:05.447Z,8.30
2022-09-28T02:32:34.655Z,8.30
2022-09-28T02:35:01.620Z,8.30
2022-09-28T02:37:28.568Z,8.30
2022-09-28T02:39:55.342Z,8.30
2022-09-28T02:42:33.780Z,8.20
2022-09-28T02:45:15.503Z,8.20
2022-09-28T02:48:13.409Z,8.20
2022-09-28T02:51:00.937Z,8.20
2022-09-28T02:53:57.785Z,8.20
2022-09-28T02:56:39.359Z,8.20
2022-09-28T02:59:28.215Z,8.20
2022-09-28T03:02:11.378Z,8.30
2022-09-28T03:04:47.179Z,8.30
2022-09-28T03:07:25.437Z,8.30
2022-09-28T03:09:55.068Z,8.30
2022-09-28T03:12:24.690Z,8.30
2022-09-28T03:15:19.144Z,8.30
2022-09-28T03:17:45.690Z,8.30
2022-09-28T03:20:12.405Z,8.40
2022-09-28T03:22:39.042Z,8.30
2022-09-28T03:25:07.516Z,8.30
2022-09-28T03:27:34.349Z,8.30
2022-09-28T03:30:00.933Z,8.40
2022-09-28T03:32:27.652Z,8.30
2022-09-28T03:34:54.383Z,8.30
2022-09-28T03:37:21.143Z,8.30
2022-09-28T03:39:47.768Z,8.30
2022-09-28T03:42:14.387Z,8.30
2022-09-28T03:44:40.981Z,8.30
2022-09-28T03:47:08.631Z,8.30
2022-09-28T03:49:35.530Z,8.30
2022-09-28T03:52:03.057Z,8.40
2022-09-28T03:54:29.757Z,8.30
2022-09-28T03:56:56.412Z,8.30
2022-09-28T03:59:23.018Z,8.40
2022-09-28T04:01:50.433Z,8.40
2022-09-28T04:04:17.128Z,8.30
2022-09-28T04:06:44.055Z,8.30
2022-09-28T04:09:11.157Z,8.30
2022-09-28T04:11:59.486Z,8.30
2022-09-28T04:14:24.703Z,8.30
2022-09-28T04:16:54.690Z,8.30
2022-09-28T04:19:22.123Z,8.30
2022-09-28T04:21:51.001Z,8.30
2022-09-28T04:24:18.686Z,8.30
2022-09-28T04:26:45.345Z,8.30
2022-09-28T04:29:15.923Z,8.30
2022-09-28T04:31:50.678Z,8.30
2022-09-28T04:34:19.629Z,8.30
2022-09-28T04:36:47.001Z,8.40
2022-09-28T04:39:15.094Z,8.30
2022-09-28T04:41:42.740Z,8.30
2022-09-28T04:44:09.809Z,8.30
2022-09-28T04:46:36.432Z,8.30
2022-09-28T04:49:03.597Z,8.30
2022-09-28T04:51:33.196Z,8.30
2022-09-28T04:53:59.781Z,8.40
2022-09-28T04:56:27.207Z,8.30
2022-09-28T04:58:53.850Z,8.30
2022-09-28T05:01:23.514Z,8.30
2022-09-28T05:03:53.827Z,8.30
2022-09-28T05:06:21.378Z,8.30
2022-09-28T05:08:48.241Z,8.40
2022-09-28T05:11:15.125Z,8.30
2022-09-28T05:13:45.364Z,8.40
2022-09-28T05:16:13.786Z,8.40
2022-09-28T05:18:40.398Z,8.40
2022-09-28T05:21:12.609Z,8.40
2022-09-28T05:23:39.925Z,8.40
2022-09-28T05:26:07.122Z,8.40
2022-09-28T05:28:34.209Z,8.40
2022-09-28T05:31:02.638Z,8.40
2022-09-28T05:33:30.087Z,8.30
2022-09-28T05:36:01.089Z,8.30
2022-09-28T05:38:29.179Z,8.40
2022-09-28T05:40:56.822Z,8.40
2022-09-28T05:43:23.822Z,8.60
2022-09-28T05:45:55.328Z,8.70
2022-09-28T05:48:22.839Z,8.80
2022-09-28T05:50:53.063Z,8.70
2022-09-28T05:53:20.067Z,8.60
2022-09-28T05:55:47.107Z,8.60
2022-09-28T05:58:14.056Z,8.60
2022-09-28T06:00:40.635Z,8.60
2022-09-28T06:03:11.025Z,8.60
2022-09-28T06:05:39.253Z,8.50
2022-09-28T06:08:08.356Z,8.60
2022-09-28T06:10:35.099Z,8.60
2022-09-28T06:13:02.122Z,8.60
2022-09-28T06:15:31.241Z,8.50
2022-09-28T06:18:02.228Z,8.50
2022-09-28T06:20:31.286Z,8.40
2022-09-28T06:22:58.027Z,8.30
2022-09-28T06:25:24.910Z,8.30
2022-09-28T06:27:59.001Z,8.30
2022-09-28T06:30:27.272Z,8.30
2022-09-28T06:32:56.155Z,8.30
2022-09-28T06:35:24.114Z,8.30
2022-09-28T06:37:51.005Z,8.40
2022-09-28T06:40:18.410Z,8.40
2022-09-28T06:42:45.275Z,8.50
2022-09-28T06:45:11.927Z,8.40
2022-09-28T06:47:38.593Z,8.40
2022-09-28T06:50:13.442Z,8.50
2022-09-28T06:52:40.053Z,8.40
2022-09-28T06:55:06.976Z,8.40
2022-09-28T06:57:33.616Z,8.40
2022-09-28T07:00:00.445Z,8.40
2022-09-28T07:02:27.111Z,8.50
2022-09-28T07:04:53.675Z,8.60
2022-09-28T07:07:20.432Z,8.50
2022-09-28T07:09:51.340Z,8.50
2022-09-28T07:12:20.231Z,8.50
2022-09-28T07:14:48.355Z,8.50
2022-09-28T07:17:15.553Z,8.60
2022-09-28T07:19:42.280Z,8.70
2022-09-28T07:22:08.870Z,8.70
2022-09-28T07:24:35.520Z,8.80
2022-09-28T07:27:05.545Z,8.90
2022-09-28T07:29:32.139Z,8.90
2022-09-28T07:31:58.710Z,8.80
2022-09-28T07:34:25.343Z,8.80
2022-09-28T07:36:57.314Z,8.90
2022-09-28T07:39:23.941Z,8.90
2022-09-28T07:41:50.500Z,8.90
2022-09-28T07:44:18.937Z,8.90
2022-09-28T07:46:46.572Z,8.80
2022-09-28T07:49:15.454Z,8.80
2022-09-28T07:51:44.690Z,8.80
2022-09-28T07:54:11.318Z,8.80
2022-09-28T07:56:37.890Z,8.80
2022-09-28T07:59:04.538Z,8.70
2022-09-28T08:01:31.196Z,8.80
2022-09-28T08:03:57.925Z,8.70
2022-09-28T08:06:25.118Z,8.70
2022-09-28T08:08:56.111Z,8.70
2022-09-28T08:11:22.751Z,8.80
2022-09-28T08:13:50.811Z,8.80
2022-09-28T08:16:18.592Z,8.80
2022-09-28T08:18:48.100Z,8.80
2022-09-28T08:21:33.286Z,8.80
2022-09-28T08:24:00.015Z,8.80
2022-09-28T08:26:26.743Z,8.90
2022-09-28T08:28:53.340Z,8.90
2022-09-28T08:31:20.205Z,9.00
2022-09-28T08:33:47.661Z,8.90
2022-09-28T08:36:14.359Z,9.00
2022-09-28T08:38:42.069Z,9.00
2022-09-28T08:41:17.860Z,9.10
2022-09-28T08:43:55.477Z,9.10
2022-09-28T08:46:27.173Z,9.10
2022-09-28T08:49:23.911Z,9.10
2022-09-28T08:52:04.988Z,9.10
2022-09-28T08:57:24.582Z,9.10
2022-09-28T09:05:02.698Z,9.20
2022-09-28T09:08:07.093Z,9.20
2022-09-28T09:10:57.778Z,9.10
2022-09-28T09:13:53.475Z,9.00
2022-09-28T09:16:29.412Z,8.70
2022-09-28T09:19:09.185Z,8.40
2022-09-28T09:21:48.640Z,8.10
2022-09-28T09:24:38.254Z,8.10
2022-09-28T09:27:37.523Z,8.00
2022-09-28T09:30:25.640Z,7.90
2022-09-28T09:33:05.659Z,7.90
2022-09-28T09:35:47.536Z,7.90
2022-09-28T09:38:27.700Z,7.90
2022-09-28T09:40:57.190Z,8.00
2022-09-28T09:43:38.564Z,8.10
2022-09-28T09:46:28.552Z,8.10
2022-09-28T09:49:05.317Z,8.10
2022-09-28T09:51:48.103Z,8.10
2022-09-28T09:54:56.915Z,8.20
2022-09-28T09:57:30.154Z,8.20
2022-09-28T10:00:00.304Z,8.20
2022-09-28T10:02:36.215Z,8.30
2022-09-28T10:05:16.013Z,8.20
2022-09-28T10:07:59.336Z,8.30
2022-09-28T10:10:38.772Z,8.20
2022-09-28T10:13:05.399Z,8.30
2022-09-28T10:15:35.293Z,8.20
2022-09-28T10:18:07.070Z,8.30
2022-09-28T10:20:38.859Z,8.40
2022-09-28T10:23:11.965Z,8.40
2022-09-28T10:25:39.192Z,8.40
2022-09-28T10:28:07.514Z,8.40
2022-09-28T10:30:44.810Z,8.50
2022-09-28T10:33:28.101Z,8.50
2022-09-28T10:35:55.189Z,8.50
2022-09-28T10:38:22.877Z,8.60
2022-09-28T10:40:50.508Z,8.50
2022-09-28T10:43:31.361Z,8.50
2022-09-28T10:46:06.438Z,8.70
2022-09-28T10:49:00.477Z,8.90
2022-09-28T10:51:49.516Z,9.00
2022-09-28T10:54:19.409Z,8.90
2022-09-28T10:56:47.045Z,8.80
2022-09-28T10:59:29.511Z,8.90
2022-09-28T11:01:57.976Z,9.00
2022-09-28T11:04:27.920Z,9.00
2022-09-28T11:09:31.145Z,9.20
2022-09-28T11:11:59.444Z,9.30
2022-09-28T11:14:42.674Z,9.40
2022-09-28T11:17:45.181Z,9.30
2022-09-28T11:20:27.321Z,9.30
2022-09-28T11:22:56.683Z,9.30
2022-09-28T11:25:25.935Z,9.40
2022-09-28T11:27:52.568Z,9.40
2022-09-28T11:30:27.522Z,9.50
2022-09-28T11:33:00.750Z,9.50
2022-09-28T11:35:55.543Z,9.50
2022-09-28T13:25:31.024Z,9.30
2022-09-28T14:45:16.531Z,8.70
2022-09-28T15:00:31.939Z,8.70
2022-09-28T15:03:03.287Z,8.60
2022-09-28T15:05:42.076Z,8.60
2022-09-28T15:08:11.089Z,8.60
2022-09-28T15:10:41.959Z,8.70
2022-09-28T15:13:24.949Z,8.70
2022-09-28T15:16:03.693Z,8.70
2022-09-28T15:19:08.398Z,8.70
2022-09-28T15:21:37.783Z,8.70
2022-09-28T15:24:34.123Z,8.70
2022-09-28T15:27:02.554Z,8.80
2022-09-28T15:29:33.660Z,8.80
2022-09-28T15:32:00.507Z,8.80
2022-09-28T15:34:50.871Z,8.80
2022-09-28T15:37:39.626Z,8.80
2022-09-28T15:40:16.625Z,8.80
2022-09-28T15:42:45.196Z,8.70
2022-09-28T15:45:24.443Z,8.70
2022-09-28T15:47:58.311Z,8.70
2022-09-28T15:50:29.690Z,8.70
2022-09-28T15:53:03.069Z,8.70
2022-09-28T15:55:36.755Z,8.60
2022-09-28T15:58:15.712Z,8.70
2022-09-28T16:00:43.534Z,8.60
2022-09-28T16:03:10.163Z,8.60
2022-09-28T16:05:46.557Z,8.70
2022-09-28T16:08:37.353Z,8.70
2022-09-28T16:11:24.112Z,8.70
2022-09-28T16:14:07.980Z,8.60
2022-09-28T16:16:41.196Z,8.60
2022-09-28T16:19:25.320Z,8.70
2022-09-28T16:21:55.587Z,8.60
2022-09-28T16:24:32.789Z,8.60
2022-09-28T16:27:02.743Z,8.50
2022-09-28T16:29:42.725Z,8.40
2022-09-28T16:32:27.434Z,8.40
2022-09-28T16:35:18.610Z,8.50
2022-09-28T16:37:48.026Z,8.60
2022-09-28T16:40:14.994Z,8.50
2022-09-28T16:42:48.870Z,8.30
2022-09-28T16:45:21.547Z,8.50
2022-09-28T16:47:52.733Z,8.30
2022-09-28T16:50:21.272Z,8.40
2022-09-28T16:53:24.598Z,8.50
2022-09-28T16:55:51.220Z,8.50
2022-09-28T16:58:18.566Z,8.50
2022-09-28T17:00:45.704Z,8.50
2022-09-28T17:03:18.391Z,8.40
2022-09-28T17:05:46.549Z,8.30
2022-09-28T17:08:17.337Z,8.30
2022-09-28T17:11:15.979Z,8.40
2022-09-28T17:13:42.105Z,8.60
2022-09-28T17:16:14.477Z,8.50
2022-09-28T17:18:41.822Z,8.50
2022-09-28T17:21:18.360Z,8.60
2022-09-28T17:23:46.468Z,8.50
2022-09-28T17:26:34.404Z,8.50
2022-09-28T17:29:01.834Z,8.30
2022-09-28T17:31:29.762Z,8.20
2022-09-28T17:33:56.531Z,8.10
2022-09-28T17:36:24.168Z,8.10
2022-09-28T17:38:51.719Z,8.10
2022-09-28T17:41:21.110Z,8.10
2022-09-28T17:43:48.525Z,8.10
2022-09-28T17:46:34.414Z,7.90
2022-09-28T17:49:03.309Z,7.90
2022-09-28T17:51:32.274Z,7.90
2022-09-28T17:54:00.827Z,7.90
2022-09-28T17:56:32.156Z,7.90
2022-09-28T17:59:00.967Z,7.90
2022-09-28T18:01:33.740Z,7.90
2022-09-28T18:04:05.652Z,7.90
2022-09-28T18:06:33.787Z,7.90
2022-09-28T18:09:02.721Z,7.90
2022-09-28T18:11:30.460Z,7.90
2022-09-28T18:13:57.046Z,7.90
2022-09-28T18:16:24.137Z,7.90
2022-09-28T18:18:50.816Z,7.90
2022-09-28T18:21:17.666Z,7.90
2022-09-28T18:23:44.510Z,7.90
2022-09-28T18:26:12.625Z,7.90
2022-09-28T18:28:39.570Z,7.90
2022-09-28T18:31:10.199Z,7.90
2022-09-28T18:33:37.563Z,8.00
2022-09-28T18:36:05.867Z,8.00
2022-09-28T18:38:35.459Z,7.80
2022-09-28T18:41:16.876Z,7.70
2022-09-28T18:43:49.085Z,7.60
2022-09-28T18:46:20.067Z,7.60
2022-09-28T18:48:49.825Z,7.60
2022-09-28T18:51:16.476Z,7.70
2022-09-28T18:53:43.131Z,7.70
2022-09-28T18:56:12.224Z,7.70
2022-09-28T18:58:40.857Z,7.70
2022-09-28T19:01:33.011Z,7.70
2022-09-28T19:04:05.493Z,7.70
2022-09-28T19:06:34.273Z,7.70
2022-09-28T19:09:01.242Z,7.70
2022-09-28T19:11:28.620Z,7.70
2022-09-28T19:13:55.881Z,7.70
2022-09-28T19:16:26.374Z,7.70
2022-09-28T19:18:53.428Z,7.70
2022-09-28T19:21:20.988Z,7.70
2022-09-28T19:23:49.828Z,7.70
2022-09-28T19:26:22.777Z,7.70
2022-09-28T19:28:49.639Z,7.80
2022-09-28T19:31:17.450Z,7.70
2022-09-28T19:33:46.065Z,7.70
2022-09-28T19:36:19.327Z,7.80
2022-09-28T19:38:46.347Z,7.80
2022-09-28T19:41:44.164Z,7.80
2022-09-28T19:44:16.735Z,7.80
2022-09-28T19:46:43.587Z,7.80
2022-09-28T19:49:13.156Z,7.70
2022-09-28T19:52:01.771Z,7.70
2022-09-28T19:54:36.367Z,7.80
2022-09-28T19:57:07.546Z,7.80
2022-09-28T19:59:35.524Z,7.80
2022-09-28T20:02:03.053Z,7.80
2022-09-28T20:04:29.910Z,7.80
2022-09-28T20:06:56.642Z,7.80
2022-09-28T20:09:23.235Z,7.80
2022-09-28T20:11:51.710Z,7.80
2022-09-28T20:14:18.836Z,7.70
2022-09-28T20:16:48.630Z,7.80
2022-09-28T20:19:15.787Z,7.70
2022-09-28T20:21:42.363Z,7.70
2022-09-28T20:24:11.381Z,7.70
2022-09-28T20:26:38.118Z,7.70
2022-09-28T20:29:05.764Z,7.70
2022-09-28T20:31:32.430Z,7.70
2022-09-28T20:33:59.175Z,7.60
2022-09-28T20:36:25.932Z,7.60
2022-09-28T20:38:54.236Z,7.60
2022-09-28T20:41:23.050Z,7.50
2022-09-28T20:43:55.871Z,7.50
2022-09-28T20:46:23.414Z,7.50
2022-09-28T20:48:51.298Z,7.50
2022-09-28T20:51:19.644Z,7.50
2022-09-28T20:53:51.355Z,7.50
2022-09-28T20:56:23.364Z,7.50
2022-09-28T20:58:50.952Z,7.50
2022-09-28T21:01:22.981Z,7.50
2022-09-28T21:03:58.099Z,7.50
2022-09-28T21:06:29.461Z,7.50
2022-09-28T21:08:56.084Z,7.50
2022-09-28T21:11:24.871Z,7.50
2022-09-28T21:13:58.018Z,7.50
2022-09-28T21:16:26.124Z,7.50
2022-09-28T21:18:52.941Z,7.50
2022-09-28T21:21:21.412Z,7.60
2022-09-28T21:23:48.309Z,7.50
2022-09-28T21:26:26.617Z,7.60
2022-09-28T21:28:58.154Z,7.60
2022-09-28T21:31:29.438Z,7.50
2022-09-28T21:33:57.330Z,7.60
2022-09-28T21:36:24.670Z,7.60
2022-09-28T21:38:51.354Z,7.60
2022-09-28T21:41:17.933Z,7.60
2022-09-28T21:43:45.743Z,7.60
2022-09-28T21:46:12.516Z,7.60
2022-09-28T21:48:39.145Z,7.60
2022-09-28T21:51:09.145Z,7.60
2022-09-28T21:53:37.698Z,7.60
2022-09-28T21:56:06.569Z,7.70
2022-09-28T21:58:34.691Z,7.60
2022-09-28T22:01:04.093Z,7.70
2022-09-28T22:03:32.284Z,7.60
2022-09-28T22:05:58.974Z,7.60
2022-09-28T22:08:26.285Z,7.70
2022-09-28T22:11:09.222Z,7.60
2022-09-28T22:13:40.181Z,7.60
2022-09-28T22:16:07.372Z,7.60
2022-09-28T22:18:34.412Z,7.60
2022-09-28T22:21:10.233Z,7.50
2022-09-28T22:23:38.002Z,7.50
2022-09-28T22:26:11.240Z,7.50
2022-09-28T22:28:39.869Z,7.40
2022-09-28T22:31:06.686Z,7.40
2022-09-28T22:33:34.018Z,7.40
2022-09-28T22:36:00.735Z,7.50
2022-09-28T22:38:28.038Z,7.50
2022-09-28T22:40:56.124Z,7.50
2022-09-28T22:43:24.507Z,7.60
2022-09-28T22:46:05.197Z,7.50
2022-09-28T22:48:32.612Z,7.50
2022-09-28T22:50:59.468Z,7.60
2022-09-28T22:53:26.435Z,7.60
2022-09-28T22:55:53.124Z,7.60
2022-09-28T22:58:19.863Z,7.60
2022-09-28T23:00:46.760Z,7.80
2022-09-28T23:03:13.451Z,7.80
2022-09-28T23:05:40.111Z,7.80
2022-09-28T23:08:06.715Z,7.70
2022-09-28T23:10:33.357Z,7.80
2022-09-28T23:12:59.954Z,7.80
2022-09-28T23:15:27.885Z,7.80
2022-09-28T23:17:55.097Z,8.00
2022-09-28T23:20:22.368Z,7.80
2022-09-28T23:22:49.583Z,7.90
2022-09-28T23:25:17.737Z,7.90
2022-09-28T23:27:48.735Z,7.90
2022-09-28T23:30:17.322Z,7.90
2022-09-28T23:32:44.437Z,7.80
2022-09-28T23:35:11.314Z,7.70
2022-09-28T23:37:38.195Z,7.70
2022-09-28T23:40:06.051Z,7.70
2022-09-28T23:42:32.729Z,7.70
2022-09-28T23:44:59.343Z,7.70
2022-09-28T23:47:25.929Z,7.70
2022-09-28T23:49:52.580Z,7.80
2022-09-28T23:52:19.203Z,7.70
2022-09-28T23:54:45.795Z,7.70
2022-09-28T23:57:12.416Z,7.70
2022-09-28T23:59:39.023Z,7.70
